Leting, China
Current Conditions -  °F | °C
As of 4:00 AM on Monday 22 Dec 2014 (Local Time) from ZBTJ Reporting Station
Haze Haze  
Wind Chill: 23°   Ceiling: Unl
Heat Index: 28°   Visibility: 3mi
Dew Point:   Wind: 4mph
Humidity: 37%   Direction: 250°WSW
Pressure: 30.24"   Gusts: NA
Location:  39.43°N, 118.9°E
Report Text: ZBTJ 212000Z 25002MPS 220V290 5000 HZ NSC M02/M15 Q1024 NOSIG
Loading
Personal Weather Stations






























Interactive Weather Map New forecast layout! Learn more

10-Day Weather Forecast

Advertisements
Track Severe Weather on mobile